Aérodrome :
LOGIN :

S'inscrire | Disclaimer

   EN    FR    IT 

 










Légende :    VFR   VFR Marginal   IFR   IFR Intensif   IFR Très Intensif
Visi : 
Plafond : 
>= 8 km
>= 3000ft
5 à 8 km
1000 à 3000 ft
1500m à 5 km
500 à 1000 ft
800 à 1500m
200 à 500 ft
< 800m
< 200 ft
Symboles :   Orages  Brouillard  Fortes neiges  Fortes précipitations  Vent > 20 kt
SIGMETs :   Divers  Orages  Givrage  Turbulence  Onde Orograph.  Cendres Volcan.






- Altitude de l'aérodrome : 124 ft
- Code IATA : NHT


EGWU - RAF Northolt

DERNIER METAR :
  • 220920Z 28006KT 9999 SCT020 BKN040 18/13 Q1012 BECMG SCT025

METARs EXPIRÉS :
  • 220850Z 26007KT 9999 BKN020 18/14 Q1011 BECMG SCT025 RMK WHT BECMG BLU
  • 220820Z 28007KT 9999 SCT018 SCT034 BKN050 17/13 Q1011 TEMPO SCT014 RMK WHT TEMPO GRN
  • 220750Z 27006KT 9999 SCT011 BKN038 17/15 Q1011 BECMG SCT015
  • 220720Z 27005KT 9999 SCT010 BKN028 16/14 Q1011 BECMG FEW010 BKN018 RMK GRN BECMG WHT
  • 220650Z 22004KT 8000 -DZ OVC008 15/14 Q1011 TEMPO 6000 -RADZ RMK GRN TEMPO GRN
  • 220620Z 22007KT 6000 -RADZ OVC008 15/13 Q1011 BECMG 9999 NSW RMK GRN BECMG GRN
  • 220550Z 22007KT 8000 -DZ OVC009 15/13 Q1011 TEMPO 5000 -RADZ BKN006 RMK GRN TEMPO YLO1
  • 220520Z AUTO 20006KT 9999 // OVC008/// 15/14 Q1011
  • 220450Z AUTO 21006KT 9999 // OVC006/// 15/14 Q1010

TAF TAF EGWU
Valide du 22 à 09h jusqu'au 23 à 03h UTC


220723Z 2209/2303 22006KT 9999 FEW012 BKN018
TEMPO 2209/2210 BKN012
PROB40
TEMPO 2209/2210 5000 -RADZ
BECMG 2210/2213 SCT030



MET'MAP, la Météo Aéronautique d'un coup d'oeil ! - Copyright ORBIFLY Décembre 2007 - Disclaimer

ORBIFLY MET'MAP TEAM :

Programmation & Développement : Alexandra Zaïnal
Sur une idée originale de : Baudouin d'Aumeries
Soutien technique & logistique : Manuel Goepfert
Assistance : Marc-Olivier Méhu




SOURCES & CREDITS :

   NOAA